createdAt,value
2023-05-12T00:00:06.282Z,448.00
2023-05-12T00:01:06.323Z,448.00
2023-05-12T00:02:06.369Z,448.00
2023-05-12T00:03:06.569Z,448.00
2023-05-12T00:04:06.723Z,449.00
2023-05-12T00:05:06.527Z,449.00
2023-05-12T00:06:06.584Z,449.00
2023-05-12T00:07:06.617Z,449.00
2023-05-12T00:08:06.646Z,450.00
2023-05-12T00:09:06.707Z,451.00
2023-05-12T00:10:06.744Z,451.00
2023-05-12T00:11:06.757Z,452.00
2023-05-12T00:12:06.811Z,451.00
2023-05-12T00:13:06.863Z,451.00
2023-05-12T00:14:06.892Z,449.00
2023-05-12T00:15:06.928Z,448.00
2023-05-12T00:16:06.996Z,449.00
2023-05-12T00:17:06.987Z,448.00
2023-05-12T00:18:07.086Z,447.00
2023-05-12T00:19:07.126Z,449.00
2023-05-12T00:20:07.118Z,449.00
2023-05-12T00:21:07.176Z,449.00
2023-05-12T00:22:07.198Z,451.00
2023-05-12T00:23:07.215Z,453.00
2023-05-12T00:24:07.280Z,454.00
2023-05-12T00:25:07.331Z,452.00
2023-05-12T00:26:07.334Z,452.00
2023-05-12T00:27:07.368Z,451.00
2023-05-12T00:28:07.397Z,452.00
2023-05-12T00:29:07.453Z,452.00
2023-05-12T00:30:07.507Z,453.00
2023-05-12T00:31:07.578Z,453.00
2023-05-12T00:32:07.562Z,453.00
2023-05-12T00:33:07.630Z,453.00
2023-05-12T00:34:07.691Z,453.00
2023-05-12T00:35:07.707Z,453.00
2023-05-12T00:36:07.904Z,452.00
2023-05-12T00:37:07.743Z,452.00
2023-05-12T00:38:07.798Z,452.00
2023-05-12T00:39:07.828Z,453.00
2023-05-12T00:40:07.888Z,453.00
2023-05-12T00:41:07.871Z,453.00
2023-05-12T00:42:07.894Z,451.00
2023-05-12T00:43:07.922Z,449.00
2023-05-12T00:44:07.999Z,449.00
2023-05-12T00:45:08.037Z,452.00
2023-05-12T00:46:08.430Z,451.00
2023-05-12T00:47:08.091Z,449.00
2023-05-12T00:48:08.187Z,450.00
2023-05-12T00:49:08.161Z,449.00
2023-05-12T00:50:08.223Z,448.00
2023-05-12T00:51:08.205Z,447.00
2023-05-12T00:52:08.274Z,447.00
2023-05-12T00:53:08.276Z,446.00
2023-05-12T00:54:08.328Z,445.00
2023-05-12T00:55:08.406Z,445.00
2023-05-12T00:56:08.905Z,446.00
2023-05-12T00:57:08.457Z,449.00
2023-05-12T00:58:08.480Z,447.00
2023-05-12T00:59:08.508Z,444.00
2023-05-12T01:00:08.524Z,443.00
2023-05-12T01:01:08.951Z,444.00
2023-05-12T01:02:08.795Z,444.00
2023-05-12T01:03:08.765Z,443.00
2023-05-12T01:04:08.704Z,446.00
2023-05-12T01:05:08.756Z,447.00
2023-05-12T01:06:08.783Z,446.00
2023-05-12T01:07:08.833Z,446.00
2023-05-12T01:08:08.881Z,447.00
2023-05-12T01:09:08.918Z,447.00
2023-05-12T01:10:08.915Z,446.00
2023-05-12T01:11:08.963Z,446.00
2023-05-12T01:12:09.042Z,447.00
2023-05-12T01:13:09.044Z,449.00
2023-05-12T01:14:09.087Z,449.00
2023-05-12T01:15:09.114Z,447.00
2023-05-12T01:16:09.112Z,450.00
2023-05-12T01:17:09.165Z,450.00
2023-05-12T01:18:09.277Z,449.00
2023-05-12T01:19:09.293Z,450.00
2023-05-12T01:20:09.268Z,449.00
2023-05-12T01:21:09.429Z,448.00
2023-05-12T01:22:09.325Z,447.00
2023-05-12T01:23:09.348Z,446.00
2023-05-12T01:24:09.405Z,446.00
2023-05-12T01:25:09.444Z,445.00
2023-05-12T01:26:09.503Z,444.00
2023-05-12T01:27:09.528Z,445.00
2023-05-12T01:28:09.593Z,444.00
2023-05-12T01:29:09.651Z,442.00
2023-05-12T01:30:09.669Z,444.00
2023-05-12T01:31:09.966Z,442.00
2023-05-12T01:32:09.721Z,441.00
2023-05-12T01:33:09.779Z,440.00
2023-05-12T01:34:09.834Z,440.00
2023-05-12T01:35:09.853Z,441.00
2023-05-12T01:36:09.895Z,439.00
2023-05-12T01:37:09.895Z,440.00
2023-05-12T01:38:09.942Z,441.00
2023-05-12T01:39:09.944Z,440.00
2023-05-12T01:40:09.975Z,440.00
2023-05-12T01:41:09.995Z,440.00
2023-05-12T01:42:10.041Z,439.00
2023-05-12T01:43:10.010Z,439.00
2023-05-12T01:44:10.050Z,435.00
2023-05-12T01:45:10.098Z,435.00
2023-05-12T01:46:10.460Z,433.00
2023-05-12T01:47:10.131Z,435.00
2023-05-12T01:48:10.140Z,435.00
2023-05-12T01:49:10.157Z,435.00
2023-05-12T01:50:10.181Z,436.00
2023-05-12T01:51:10.238Z,437.00
2023-05-12T01:52:10.228Z,438.00
2023-05-12T01:53:10.309Z,439.00
2023-05-12T01:54:10.328Z,441.00
2023-05-12T01:55:10.364Z,441.00
2023-05-12T01:56:10.367Z,442.00
2023-05-12T01:57:10.375Z,442.00
2023-05-12T01:58:10.440Z,443.00
2023-05-12T01:59:10.446Z,442.00
2023-05-12T02:00:10.456Z,440.00
2023-05-12T02:01:10.484Z,439.00
2023-05-12T02:02:10.534Z,437.00
2023-05-12T02:03:10.627Z,435.00
2023-05-12T02:04:10.602Z,435.00
2023-05-12T02:05:10.590Z,436.00
2023-05-12T02:06:10.594Z,435.00
2023-05-12T02:07:10.645Z,435.00
2023-05-12T02:08:10.667Z,433.00
2023-05-12T02:09:10.664Z,431.00
2023-05-12T02:10:10.716Z,431.00
2023-05-12T02:11:10.758Z,434.00
2023-05-12T02:12:10.793Z,435.00
2023-05-12T02:13:10.820Z,436.00
2023-05-12T02:14:10.867Z,439.00
2023-05-12T02:15:10.896Z,440.00
2023-05-12T02:16:11.439Z,441.00
2023-05-12T02:17:10.954Z,440.00
2023-05-12T02:18:11.077Z,440.00
2023-05-12T02:19:11.116Z,442.00
2023-05-12T02:20:11.111Z,441.00
2023-05-12T02:21:11.110Z,438.00
2023-05-12T02:22:11.207Z,435.00
2023-05-12T02:23:11.222Z,436.00
2023-05-12T02:24:12.363Z,436.00
2023-05-12T02:25:11.264Z,434.00
2023-05-12T02:26:11.397Z,435.00
2023-05-12T02:27:11.220Z,435.00
2023-05-12T02:28:11.214Z,434.00
2023-05-12T02:29:11.212Z,435.00
2023-05-12T02:30:11.220Z,436.00
2023-05-12T02:31:11.189Z,436.00
2023-05-12T02:32:11.330Z,437.00
2023-05-12T02:33:11.182Z,439.00
2023-05-12T02:34:11.176Z,440.00
2023-05-12T02:35:11.172Z,438.00
2023-05-12T02:36:11.185Z,438.00
2023-05-12T02:37:11.170Z,436.00
2023-05-12T02:38:11.137Z,435.00
2023-05-12T02:39:11.167Z,437.00
2023-05-12T02:40:11.159Z,436.00
2023-05-12T02:41:11.114Z,433.00
2023-05-12T02:42:11.454Z,434.00
2023-05-12T02:43:11.149Z,434.00
2023-05-12T02:44:11.116Z,432.00
2023-05-12T02:45:11.123Z,435.00
2023-05-12T02:46:11.170Z,435.00
2023-05-12T02:47:11.120Z,435.00
2023-05-12T02:48:11.116Z,436.00
2023-05-12T02:49:11.143Z,435.00
2023-05-12T02:50:11.089Z,435.00
2023-05-12T02:51:11.100Z,434.00
2023-05-12T02:52:11.396Z,436.00
2023-05-12T02:53:11.103Z,433.00
2023-05-12T02:54:11.056Z,437.00
2023-05-12T02:55:11.050Z,440.00
2023-05-12T02:56:11.057Z,441.00
2023-05-12T02:57:11.067Z,440.00
2023-05-12T02:58:11.037Z,439.00
2023-05-12T02:59:11.040Z,440.00
2023-05-12T03:00:11.055Z,438.00
2023-05-12T03:01:11.722Z,437.00
2023-05-12T03:02:11.107Z,437.00
2023-05-12T03:03:11.126Z,439.00
2023-05-12T03:04:11.014Z,439.00
2023-05-12T03:05:11.032Z,440.00
2023-05-12T03:06:11.053Z,439.00
2023-05-12T03:07:11.439Z,440.00
2023-05-12T03:08:10.974Z,440.00
2023-05-12T03:09:11.005Z,437.00
2023-05-12T03:10:10.987Z,437.00
2023-05-12T03:11:10.959Z,436.00
2023-05-12T03:12:10.962Z,436.00
2023-05-12T03:13:10.984Z,436.00
2023-05-12T03:14:10.934Z,437.00
2023-05-12T03:15:10.951Z,436.00
2023-05-12T03:16:10.925Z,437.00
2023-05-12T03:17:10.971Z,436.00
2023-05-12T03:18:10.985Z,435.00
2023-05-12T03:19:11.046Z,436.00
2023-05-12T03:20:10.880Z,435.00
2023-05-12T03:21:10.865Z,437.00
2023-05-12T03:22:10.943Z,439.00
2023-05-12T03:23:10.893Z,438.00
2023-05-12T03:24:10.867Z,439.00
2023-05-12T03:25:10.898Z,440.00
2023-05-12T03:26:10.842Z,439.00
2023-05-12T03:27:10.866Z,438.00
2023-05-12T03:28:10.837Z,436.00
2023-05-12T03:29:10.840Z,436.00
2023-05-12T03:30:10.848Z,435.00
2023-05-12T03:31:10.835Z,434.00
2023-05-12T03:32:10.826Z,434.00
2023-05-12T03:33:10.810Z,435.00
2023-05-12T03:34:10.802Z,434.00
2023-05-12T03:35:10.781Z,434.00
2023-05-12T03:36:10.792Z,434.00
2023-05-12T03:37:10.928Z,434.00
2023-05-12T03:38:10.765Z,435.00
2023-05-12T03:39:10.764Z,435.00
2023-05-12T03:40:10.750Z,439.00
2023-05-12T03:41:10.781Z,439.00
2023-05-12T03:42:10.729Z,439.00
2023-05-12T03:43:10.731Z,438.00
2023-05-12T03:44:10.730Z,436.00
2023-05-12T03:45:10.752Z,435.00
2023-05-12T03:46:10.849Z,435.00
2023-05-12T03:47:10.838Z,438.00
2023-05-12T03:48:10.756Z,438.00
2023-05-12T03:49:10.707Z,440.00
2023-05-12T03:50:10.677Z,439.00
2023-05-12T03:51:10.702Z,440.00
2023-05-12T03:52:10.960Z,439.00
2023-05-12T03:53:10.700Z,442.00
2023-05-12T03:54:10.708Z,441.00
2023-05-12T03:55:10.729Z,441.00
2023-05-12T03:56:10.747Z,437.00
2023-05-12T03:57:10.773Z,438.00
2023-05-12T03:58:10.786Z,440.00
2023-05-12T03:59:10.821Z,440.00
2023-05-12T04:00:10.851Z,439.00
2023-05-12T04:01:10.857Z,438.00
2023-05-12T04:02:10.926Z,438.00
2023-05-12T04:03:10.946Z,436.00
2023-05-12T04:04:10.987Z,433.00
2023-05-12T04:05:10.955Z,434.00
2023-05-12T04:06:10.929Z,433.00
2023-05-12T04:07:11.482Z,432.00
2023-05-12T04:08:11.001Z,432.00
2023-05-12T04:09:10.983Z,432.00
2023-05-12T04:10:11.019Z,432.00
2023-05-12T04:11:11.071Z,431.00
2023-05-12T04:12:11.070Z,432.00
2023-05-12T04:13:11.118Z,433.00
2023-05-12T04:14:11.100Z,432.00
2023-05-12T04:15:11.135Z,430.00
2023-05-12T04:16:11.209Z,431.00
2023-05-12T04:17:11.478Z,434.00
2023-05-12T04:18:11.172Z,435.00
2023-05-12T04:19:11.263Z,433.00
2023-05-12T04:20:11.255Z,433.00
2023-05-12T04:21:11.264Z,433.00
2023-05-12T04:22:11.442Z,436.00
2023-05-12T04:23:11.940Z,437.00
2023-05-12T04:24:11.327Z,436.00
2023-05-12T04:25:11.320Z,436.00
2023-05-12T04:26:11.352Z,436.00
2023-05-12T04:27:11.458Z,434.00
2023-05-12T04:28:12.199Z,433.00
2023-05-12T04:29:11.384Z,435.00
2023-05-12T04:30:11.411Z,435.00
2023-05-12T04:31:11.449Z,437.00
2023-05-12T04:32:12.019Z,440.00
2023-05-12T04:33:11.521Z,442.00
2023-05-12T04:34:11.520Z,439.00
2023-05-12T04:35:11.912Z,438.00
2023-05-12T04:36:11.917Z,437.00
2023-05-12T04:37:11.565Z,438.00
2023-05-12T04:38:11.630Z,437.00
2023-05-12T04:39:11.665Z,435.00
2023-05-12T04:40:11.657Z,435.00
2023-05-12T04:41:11.697Z,436.00
2023-05-12T04:42:11.932Z,435.00
2023-05-12T04:44:00.000Z,435.00
2023-05-12T04:44:12.725Z,435.00
2023-05-12T04:45:11.715Z,436.00
2023-05-12T04:46:11.758Z,436.00
2023-05-12T04:47:11.717Z,439.00
2023-05-12T04:48:11.681Z,439.00
2023-05-12T04:49:11.709Z,439.00
2023-05-12T04:50:11.684Z,442.00
2023-05-12T04:51:11.678Z,439.00
2023-05-12T04:52:11.676Z,439.00
2023-05-12T04:53:11.655Z,443.00
2023-05-12T04:54:11.668Z,443.00
2023-05-12T04:55:11.684Z,446.00
2023-05-12T04:56:11.665Z,448.00
2023-05-12T04:57:11.964Z,452.00
2023-05-12T04:58:11.628Z,454.00
2023-05-12T04:59:11.688Z,455.00
2023-05-12T05:00:11.670Z,461.00
2023-05-12T05:01:11.638Z,466.00
2023-05-12T05:02:12.004Z,470.00
2023-05-12T05:03:11.772Z,470.00
2023-05-12T05:04:11.701Z,467.00
2023-05-12T05:05:11.741Z,464.00
2023-05-12T05:06:11.726Z,462.00
2023-05-12T05:07:11.971Z,461.00
2023-05-12T05:08:11.775Z,459.00
2023-05-12T05:09:11.768Z,460.00
2023-05-12T05:10:11.788Z,461.00
2023-05-12T05:11:11.794Z,462.00
2023-05-12T05:12:11.964Z,462.00
2023-05-12T05:13:11.812Z,461.00
2023-05-12T05:14:11.874Z,462.00
2023-05-12T05:15:11.880Z,461.00
2023-05-12T05:16:11.927Z,459.00
2023-05-12T05:17:11.895Z,459.00
2023-05-12T05:18:11.951Z,459.00
2023-05-12T05:19:20.216Z,458.00
2023-05-12T05:20:15.388Z,458.00
2023-05-12T05:21:12.037Z,457.00
2023-05-12T05:22:11.917Z,456.00
2023-05-12T05:23:11.896Z,457.00
2023-05-12T05:24:11.914Z,456.00
2023-05-12T05:25:11.903Z,454.00
2023-05-12T05:26:11.909Z,453.00
2023-05-12T05:27:11.969Z,451.00
2023-05-12T05:28:11.889Z,451.00
2023-05-12T05:29:11.901Z,453.00
2023-05-12T05:30:11.854Z,453.00
2023-05-12T05:31:11.934Z,451.00
2023-05-12T05:32:11.902Z,450.00
2023-05-12T05:33:11.857Z,448.00
2023-05-12T05:34:11.842Z,449.00
2023-05-12T05:35:11.832Z,450.00
2023-05-12T05:36:11.833Z,450.00
2023-05-12T05:37:11.993Z,453.00
2023-05-12T05:38:11.813Z,452.00
2023-05-12T05:39:11.806Z,452.00
2023-05-12T05:40:11.771Z,455.00
2023-05-12T05:41:11.771Z,454.00
2023-05-12T05:42:11.772Z,452.00
2023-05-12T05:43:11.780Z,451.00
2023-05-12T05:44:11.787Z,453.00
2023-05-12T05:45:11.787Z,452.00
2023-05-12T05:46:11.815Z,454.00
2023-05-12T05:47:12.031Z,455.00
2023-05-12T05:48:11.788Z,462.00
2023-05-12T05:49:11.747Z,488.00
2023-05-12T05:50:11.719Z,516.00
2023-05-12T05:51:11.725Z,529.00
2023-05-12T05:52:11.734Z,542.00
2023-05-12T05:53:11.696Z,608.00
2023-05-12T05:54:11.693Z,614.00
2023-05-12T05:55:11.664Z,671.00
2023-05-12T05:56:11.674Z,703.00
2023-05-12T05:57:11.692Z,719.00
2023-05-12T05:58:11.970Z,784.00
2023-05-12T05:59:11.685Z,812.00
2023-05-12T06:00:11.680Z,850.00
2023-05-12T06:01:11.693Z,864.00
2023-05-12T06:02:11.687Z,874.00
2023-05-12T06:03:12.119Z,880.00
2023-05-12T06:04:11.674Z,882.00
2023-05-12T06:05:12.998Z,878.00
2023-05-12T06:06:11.751Z,876.00
2023-05-12T06:07:11.753Z,876.00
2023-05-12T06:08:11.833Z,871.00
2023-05-12T06:09:11.872Z,869.00
2023-05-12T06:10:11.911Z,867.00
2023-05-12T06:11:11.975Z,863.00
2023-05-12T06:12:11.986Z,860.00
2023-05-12T06:13:12.501Z,855.00
2023-05-12T06:14:12.093Z,850.00
2023-05-12T06:15:12.111Z,847.00
2023-05-12T06:16:12.238Z,844.00
2023-05-12T06:17:12.248Z,841.00
2023-05-12T06:18:12.460Z,836.00
2023-05-12T06:19:13.030Z,834.00
2023-05-12T06:20:12.349Z,830.00
2023-05-12T06:21:12.387Z,827.00
2023-05-12T06:22:12.534Z,822.00
2023-05-12T06:23:12.993Z,818.00
2023-05-12T06:24:12.553Z,812.00
2023-05-12T06:25:12.641Z,808.00
2023-05-12T06:26:12.656Z,806.00
2023-05-12T06:27:12.690Z,805.00
2023-05-12T06:28:12.757Z,805.00
2023-05-12T06:29:12.806Z,802.00
2023-05-12T06:30:15.576Z,799.00
2023-05-12T06:31:12.879Z,796.00
2023-05-12T06:32:12.876Z,794.00
2023-05-12T06:33:12.866Z,793.00
2023-05-12T06:34:12.836Z,792.00
2023-05-12T06:35:12.849Z,789.00
2023-05-12T06:36:12.857Z,790.00
2023-05-12T06:37:12.807Z,788.00
2023-05-12T06:38:13.009Z,785.00
2023-05-12T06:39:12.823Z,783.00
2023-05-12T06:40:12.801Z,780.00
2023-05-12T06:41:12.790Z,779.00
2023-05-12T06:42:12.803Z,779.00
2023-05-12T06:43:13.081Z,779.00
2023-05-12T06:44:12.845Z,779.00
2023-05-12T06:45:12.766Z,779.00
2023-05-12T06:46:12.819Z,776.00
2023-05-12T06:47:12.763Z,771.00
2023-05-12T06:48:13.010Z,766.00
2023-05-12T06:49:12.754Z,765.00
2023-05-12T06:50:12.712Z,762.00
2023-05-12T06:51:12.710Z,758.00
2023-05-12T06:52:12.697Z,756.00
2023-05-12T06:53:13.021Z,756.00
2023-05-12T06:54:12.712Z,767.00
2023-05-12T06:55:12.706Z,792.00
2023-05-12T06:56:12.681Z,825.00
2023-05-12T06:57:12.663Z,890.00
2023-05-12T06:58:12.657Z,934.00
2023-05-12T06:59:12.673Z,1032.00
2023-05-12T07:00:12.663Z,1090.00
2023-05-12T07:01:12.683Z,1137.00
2023-05-12T07:02:12.659Z,1152.00
2023-05-12T07:03:13.053Z,1164.00
2023-05-12T07:04:12.645Z,913.00
2023-05-12T07:05:12.615Z,923.00
2023-05-12T07:06:12.676Z,854.00
2023-05-12T07:07:12.590Z,777.00
2023-05-12T07:08:12.602Z,767.00
2023-05-12T07:09:12.612Z,744.00
2023-05-12T07:10:12.615Z,656.00
2023-05-12T07:11:12.561Z,626.00
2023-05-12T07:12:12.538Z,607.00
2023-05-12T07:13:12.560Z,588.00
2023-05-12T07:14:12.535Z,567.00
2023-05-12T07:15:12.528Z,554.00
2023-05-12T07:16:12.608Z,540.00
2023-05-12T07:17:12.512Z,523.00
2023-05-12T07:18:13.060Z,513.00
2023-05-12T07:19:12.595Z,506.00
2023-05-12T07:20:12.503Z,502.00
2023-05-12T07:21:12.500Z,496.00
2023-05-12T07:22:12.487Z,494.00
2023-05-12T07:23:13.008Z,486.00
2023-05-12T07:24:12.560Z,482.00
2023-05-12T07:25:12.629Z,475.00
2023-05-12T07:26:12.662Z,474.00
2023-05-12T07:27:12.693Z,474.00
2023-05-12T07:28:12.998Z,474.00
2023-05-12T07:29:13.985Z,481.00
2023-05-12T07:30:12.844Z,491.00
2023-05-12T07:31:12.918Z,497.00
2023-05-12T07:32:12.870Z,495.00
2023-05-12T07:33:13.089Z,500.00
2023-05-12T07:34:12.931Z,506.00
2023-05-12T07:35:12.961Z,505.00
2023-05-12T07:36:12.954Z,498.00
2023-05-12T07:37:12.986Z,488.00
2023-05-12T07:38:13.028Z,479.00
2023-05-12T07:39:13.004Z,472.00
2023-05-12T07:40:13.052Z,469.00
2023-05-12T07:41:13.042Z,466.00
2023-05-12T07:42:13.029Z,465.00
2023-05-12T07:43:13.070Z,465.00
2023-05-12T07:44:13.079Z,462.00
2023-05-12T07:45:13.096Z,458.00
2023-05-12T07:46:13.083Z,457.00
2023-05-12T07:47:13.201Z,453.00
2023-05-12T07:48:13.214Z,449.00
2023-05-12T07:49:13.183Z,456.00
2023-05-12T07:50:13.203Z,476.00
2023-05-12T07:51:13.265Z,535.00
2023-05-12T07:52:13.290Z,565.00
2023-05-12T07:53:13.390Z,590.00
2023-05-12T07:54:13.435Z,623.00
2023-05-12T07:55:13.423Z,641.00
2023-05-12T07:56:13.444Z,655.00
2023-05-12T07:57:13.507Z,720.00
2023-05-12T07:58:13.542Z,708.00
2023-05-12T07:59:13.571Z,649.00
2023-05-12T08:00:13.618Z,659.00
2023-05-12T08:01:13.624Z,651.00
2023-05-12T08:02:13.720Z,651.00
2023-05-12T08:03:14.094Z,652.00
2023-05-12T08:04:13.811Z,654.00
2023-05-12T08:05:13.777Z,659.00
2023-05-12T08:06:13.807Z,666.00
2023-05-12T08:07:13.842Z,680.00
2023-05-12T08:08:14.048Z,695.00
2023-05-12T08:09:13.872Z,703.00
2023-05-12T08:10:13.930Z,707.00
2023-05-12T08:11:13.923Z,711.00
2023-05-12T08:12:13.946Z,714.00
2023-05-12T08:13:13.925Z,715.00
2023-05-12T08:14:13.969Z,713.00
2023-05-12T08:15:14.048Z,715.00
2023-05-12T08:16:14.023Z,717.00
2023-05-12T08:17:14.073Z,718.00
2023-05-12T08:18:14.120Z,718.00
2023-05-12T08:19:14.175Z,714.00
2023-05-12T08:20:14.148Z,712.00
2023-05-12T08:21:14.143Z,709.00
2023-05-12T08:22:14.119Z,707.00
2023-05-12T08:23:14.166Z,706.00
2023-05-12T08:24:14.226Z,704.00
2023-05-12T08:25:14.334Z,702.00
2023-05-12T08:26:14.286Z,700.00
2023-05-12T08:27:14.325Z,700.00
2023-05-12T08:28:14.315Z,696.00
2023-05-12T08:29:14.344Z,695.00
2023-05-12T08:30:14.370Z,697.00
2023-05-12T08:31:14.465Z,696.00
2023-05-12T08:32:14.404Z,696.00
2023-05-12T08:33:14.504Z,694.00
2023-05-12T08:34:15.470Z,694.00
2023-05-12T08:35:14.481Z,691.00
2023-05-12T08:36:14.441Z,690.00
2023-05-12T08:37:14.467Z,688.00
2023-05-12T08:38:14.417Z,689.00
2023-05-12T08:39:14.418Z,688.00
2023-05-12T08:40:14.394Z,686.00
2023-05-12T08:41:14.385Z,685.00
2023-05-12T08:42:14.393Z,684.00
2023-05-12T08:43:14.452Z,684.00
2023-05-12T08:44:14.477Z,684.00
2023-05-12T08:45:14.440Z,685.00
2023-05-12T08:46:14.541Z,688.00
2023-05-12T08:47:14.524Z,688.00
2023-05-12T08:48:15.109Z,691.00
2023-05-12T08:49:14.645Z,694.00
2023-05-12T08:50:14.676Z,691.00
2023-05-12T08:51:14.721Z,685.00
2023-05-12T08:52:14.709Z,650.00
2023-05-12T08:53:15.031Z,658.00
2023-05-12T08:54:14.764Z,655.00
2023-05-12T08:55:14.848Z,605.00
2023-05-12T08:57:14.827Z,638.00
2023-05-12T08:58:14.790Z,710.00
2023-05-12T08:59:14.785Z,716.00
2023-05-12T09:00:15.022Z,712.00
2023-05-12T09:01:15.115Z,726.00
2023-05-12T09:02:14.795Z,764.00
2023-05-12T09:03:15.060Z,824.00
2023-05-12T09:04:14.798Z,820.00
2023-05-12T09:05:14.757Z,841.00
2023-05-12T09:06:14.741Z,890.00
2023-05-12T09:07:14.709Z,930.00
2023-05-12T09:08:16.045Z,945.00
2023-05-12T09:09:14.707Z,957.00
2023-05-12T09:10:25.941Z,862.00
2023-05-12T09:11:15.727Z,967.00
2023-05-12T09:12:15.131Z,991.00
2023-05-12T09:13:15.034Z,1003.00
2023-05-12T09:14:14.929Z,1019.00
2023-05-12T09:15:14.674Z,1039.00
2023-05-12T09:16:14.895Z,1065.00
2023-05-12T09:17:14.696Z,1083.00
2023-05-12T09:18:14.642Z,1112.00
2023-05-12T09:19:15.132Z,1140.00
2023-05-12T09:20:30.093Z,1163.00
2023-05-12T09:21:15.624Z,1194.00
2023-05-12T09:22:14.618Z,1228.00
2023-05-12T09:23:14.620Z,1259.00
2023-05-12T09:24:15.031Z,1292.00
2023-05-12T09:25:14.870Z,1322.00
2023-05-12T09:26:14.601Z,1370.00
2023-05-12T09:27:14.649Z,1388.00
2023-05-12T09:28:14.601Z,1403.00
2023-05-12T09:29:23.983Z,1430.00
2023-05-12T09:30:15.594Z,1443.00
2023-05-12T09:31:14.732Z,1471.00
2023-05-12T09:32:15.549Z,1502.00
2023-05-12T09:33:14.787Z,1530.00
2023-05-12T09:34:14.734Z,1574.00
2023-05-12T09:35:14.796Z,1592.00
2023-05-12T09:36:14.821Z,1601.00
2023-05-12T09:37:15.451Z,1615.00
2023-05-12T09:38:14.935Z,1629.00
2023-05-12T09:39:15.047Z,1649.00
2023-05-12T09:40:15.984Z,1669.00
2023-05-12T09:41:14.948Z,1699.00
2023-05-12T09:42:15.007Z,1684.00
2023-05-12T09:43:15.801Z,1733.00
2023-05-12T09:44:15.084Z,1737.00
2023-05-12T09:45:15.056Z,1645.00
2023-05-12T09:46:15.126Z,1391.00
2023-05-12T09:47:15.168Z,1308.00
2023-05-12T09:48:15.226Z,1541.00
2023-05-12T09:49:15.581Z,1575.00
2023-05-12T09:50:15.308Z,1579.00
2023-05-12T09:51:15.394Z,1592.00
2023-05-12T09:52:15.430Z,1598.00
2023-05-12T09:53:15.498Z,1594.00
2023-05-12T09:54:15.575Z,1587.00
2023-05-12T09:55:15.627Z,1565.00
2023-05-12T09:56:15.678Z,1521.00
2023-05-12T09:57:15.698Z,1508.00
2023-05-12T09:58:15.735Z,1493.00
2023-05-12T09:59:15.765Z,1469.00
2023-05-12T10:00:31.349Z,1442.00
2023-05-12T10:01:22.600Z,1425.00
2023-05-12T10:02:16.813Z,1418.00
2023-05-12T10:03:15.846Z,1407.00
2023-05-12T10:04:16.051Z,1403.00
2023-05-12T10:05:15.737Z,1398.00
2023-05-12T10:06:15.753Z,1390.00
2023-05-12T10:07:15.752Z,1386.00
2023-05-12T10:08:15.729Z,1377.00
2023-05-12T10:09:15.756Z,1359.00
2023-05-12T10:10:15.711Z,1345.00
2023-05-12T10:11:15.699Z,1318.00
2023-05-12T10:12:15.730Z,1301.00
2023-05-12T10:13:15.699Z,1296.00
2023-05-12T10:14:15.723Z,1285.00
2023-05-12T10:15:15.716Z,1277.00
2023-05-12T10:16:15.707Z,1276.00
2023-05-12T10:17:15.673Z,1133.00
2023-05-12T10:18:15.748Z,1132.00
2023-05-12T10:19:15.651Z,1134.00
2023-05-12T10:20:15.677Z,1004.00
2023-05-12T10:21:15.649Z,921.00
2023-05-12T10:22:15.667Z,904.00
2023-05-12T10:23:15.657Z,875.00
2023-05-12T10:24:15.617Z,772.00
2023-05-12T10:25:15.641Z,744.00
2023-05-12T10:26:15.630Z,719.00
2023-05-12T10:27:15.624Z,693.00
2023-05-12T10:28:15.606Z,678.00
2023-05-12T10:29:16.059Z,661.00
2023-05-12T10:30:15.614Z,647.00
2023-05-12T10:31:15.745Z,635.00
2023-05-12T10:32:15.593Z,623.00
2023-05-12T10:33:15.581Z,613.00
2023-05-12T10:34:15.574Z,598.00
2023-05-12T10:35:15.531Z,585.00
2023-05-12T10:36:15.622Z,574.00
2023-05-12T10:37:15.550Z,567.00
2023-05-12T10:38:15.525Z,561.00
2023-05-12T10:39:15.507Z,557.00
2023-05-12T10:40:15.561Z,553.00
2023-05-12T10:41:15.511Z,547.00
2023-05-12T10:42:15.513Z,543.00
2023-05-12T10:43:15.493Z,542.00
2023-05-12T10:44:15.455Z,541.00
2023-05-12T10:45:15.498Z,539.00
2023-05-12T10:46:15.507Z,541.00
2023-05-12T10:47:15.474Z,544.00
2023-05-12T10:48:15.440Z,546.00
2023-05-12T10:49:15.444Z,642.00
2023-05-12T10:50:15.472Z,636.00
2023-05-12T10:51:15.438Z,613.00
2023-05-12T10:52:15.435Z,604.00
2023-05-12T10:53:15.452Z,585.00
2023-05-12T10:54:15.444Z,566.00
2023-05-12T10:55:15.482Z,545.00
2023-05-12T10:56:15.604Z,526.00
2023-05-12T10:57:17.957Z,517.00
2023-05-12T10:58:15.607Z,509.00
2023-05-12T10:59:15.882Z,501.00
2023-05-12T11:00:15.655Z,491.00
2023-05-12T11:01:15.724Z,484.00
2023-05-12T11:02:15.792Z,474.00
2023-05-12T11:03:16.085Z,466.00
2023-05-12T11:04:15.708Z,461.00
2023-05-12T11:05:15.469Z,458.00
2023-05-12T11:06:15.742Z,459.00
2023-05-12T11:07:16.547Z,455.00
2023-05-12T11:08:15.818Z,456.00
2023-05-12T11:09:15.742Z,457.00
2023-05-12T11:10:15.533Z,456.00
2023-05-12T11:11:15.937Z,458.00
2023-05-12T11:12:15.338Z,460.00
2023-05-12T11:13:15.326Z,460.00
2023-05-12T11:14:15.285Z,458.00
2023-05-12T11:15:17.271Z,453.00
2023-05-12T11:16:15.571Z,449.00
2023-05-12T11:17:15.571Z,449.00
2023-05-12T11:18:15.701Z,447.00
2023-05-12T11:19:15.718Z,446.00
2023-05-12T11:20:15.749Z,443.00
2023-05-12T11:21:15.754Z,442.00
2023-05-12T11:22:15.766Z,442.00
2023-05-12T11:23:15.762Z,443.00
2023-05-12T11:24:16.148Z,444.00
2023-05-12T11:25:15.826Z,443.00
2023-05-12T11:26:15.854Z,443.00
2023-05-12T11:27:15.891Z,445.00
2023-05-12T11:28:16.011Z,447.00
2023-05-12T11:29:16.017Z,447.00
2023-05-12T11:30:16.090Z,446.00
2023-05-12T11:31:16.137Z,446.00
2023-05-12T11:32:16.176Z,446.00
2023-05-12T11:33:16.307Z,447.00
2023-05-12T11:34:16.594Z,448.00
2023-05-12T11:35:16.332Z,449.00
2023-05-12T11:36:16.494Z,449.00
2023-05-12T11:37:16.929Z,450.00
2023-05-12T11:38:16.378Z,450.00
2023-05-12T11:39:16.386Z,449.00
2023-05-12T11:40:16.478Z,450.00
2023-05-12T11:41:16.474Z,449.00
2023-05-12T11:42:19.548Z,454.00
2023-05-12T11:43:16.510Z,454.00
2023-05-12T11:44:16.538Z,451.00
2023-05-12T11:45:16.548Z,450.00
2023-05-12T11:46:16.493Z,447.00
2023-05-12T11:47:16.608Z,443.00
2023-05-12T11:48:16.649Z,440.00
2023-05-12T11:49:16.444Z,436.00
2023-05-12T11:50:16.432Z,431.00
2023-05-12T11:51:16.492Z,429.00
2023-05-12T11:52:16.492Z,428.00
2023-05-12T11:53:16.423Z,428.00
2023-05-12T11:54:16.605Z,426.00
2023-05-12T11:55:16.447Z,427.00
2023-05-12T11:56:16.461Z,426.00
2023-05-12T11:57:16.475Z,425.00
2023-05-12T11:58:16.374Z,427.00
2023-05-12T11:59:16.401Z,428.00
2023-05-12T12:00:16.599Z,429.00
2023-05-12T12:01:16.374Z,430.00
2023-05-12T12:02:16.437Z,430.00
2023-05-12T12:03:16.605Z,430.00
2023-05-12T12:04:16.419Z,431.00
2023-05-12T12:05:16.628Z,432.00
2023-05-12T12:06:16.373Z,432.00
2023-05-12T12:07:16.359Z,433.00
2023-05-12T12:08:16.337Z,435.00
2023-05-12T12:09:16.318Z,435.00
2023-05-12T12:10:16.677Z,434.00
2023-05-12T12:11:16.375Z,434.00
2023-05-12T12:12:16.313Z,432.00
2023-05-12T12:13:16.277Z,433.00
2023-05-12T12:14:16.383Z,433.00
2023-05-12T12:15:16.604Z,433.00
2023-05-12T12:16:16.512Z,433.00
2023-05-12T12:17:16.505Z,432.00
2023-05-12T12:18:16.548Z,433.00
2023-05-12T12:19:16.666Z,435.00
2023-05-12T12:20:17.104Z,435.00
2023-05-12T12:21:18.389Z,435.00
2023-05-12T12:22:16.751Z,434.00
2023-05-12T12:23:16.796Z,436.00
2023-05-12T12:24:16.903Z,436.00
2023-05-12T12:25:16.919Z,436.00
2023-05-12T12:26:16.968Z,434.00
2023-05-12T12:27:17.077Z,432.00